Details From TNCC - Curacao Hato
To TNCM - St Maarten - Princess Juliana Intl
Flight Number -
Tags Decoded
Created
Modified
Stats Distance 489 nm / 906 km
Max Altitude 0 ft / 0 m
Waypoints 4
Social Downloads 8
Likes 0
Share VATSIM

Download

Looking for another format? Having issues loading an existing format? Contact us
Advertisement - Login to hide

Notes

Decoded

Route

PJG LUCAS ANNER PJM

ID Type Via Altitude Latitude Longitude Leg Dist Tot Dist Heading (true) Name
O PJG VOR - 0 ft / 0 m 12.20028˚ -69.01000˚ - 0 nm - CURACAO VOR-DME
LUCAS FIX - 0 ft / 0 m 13.30306˚ -67.88556˚ 93 nm 93 nm 45° / 45° -
ANNER FIX - 0 ft / 0 m 16.23669˚ -64.94300˚ 245 nm 338 nm 44° / 45° -
O PJM VOR - 0 ft / 0 m 18.03811˚ -63.11828˚ 150 nm 489 nm 44° / 44° ST MAARTEN VOR-DME

Altitude Profile

Advertisement - Login to hide

Weather


0- 5 10 15 20 25 30 35+ Temperature / ° C

Clouds and Precipitation
Forecast for 2017-12-11 00:00 UTC. Updated an hour ago

Ground ~20,000 ft ~40,000 ft Winds

TNCC

Details ICAO TNCC (CUR)
Name Curacao Hato
Region Caribbean Netherlands, Aruba, Curaçao, Sint Maarten
Timezone Unknown (UTC+0.0)
Stats Elevation 29 ft / 9 m (AMSL)
Location 12.188853° -68.959803°
Runways 1
Magnetic Variation 11.330° W

METAR

TNCC 110000Z 09008KT 9999 FEW020 27/22 Q1013 NOSIG

Decode

TAF

Not found

Departure Runways

ID Width Length Bearing (true) Bearing (mag) Surface Threshold Offset Overrun Length
11 197 ft / 60 m 11,197 ft / 3,413 m 102.24° 113.57° Asphalt 300 ft / 91 m 0 ft / 0 m
29 197 ft / 60 m 11,197 ft / 3,413 m 282.24° 293.57° Asphalt 300 ft / 91 m 200 ft / 61 m

TNCM

Details ICAO TNCM (SXM)
Name St Maarten - Princess Juliana Intl
Region Caribbean Netherlands, Aruba, Curaçao, Sint Maarten
Timezone Unknown (UTC+0.0)
Stats Elevation 12 ft / 4 m (AMSL)
Location 18.040889° -63.108974°
Runways 1
Magnetic Variation 14.325° W

METAR

TNCM 110000Z 04015KT 9999 -SHRA FEW018 SCT035 24/22 Q1015 A2999 TEMPO SHRA

Decode

TAF

TAF TNCM 102320Z 1100/1124 07007KT P6SM VCSH SCT018 SCT035 FM111000 08009KT P6SM FEW018 FEW040 FM111600 09010KT P6SM VCSH SCT020 BKN040

Decode

Destination Runways

ID Width Length Bearing (true) Bearing (mag) Surface Threshold Offset Overrun Length
10 148 ft / 45 m 7,464 ft / 2,275 m 81.43° 95.75° Asphalt 0 ft / 0 m 151 ft / 46 m
28 148 ft / 45 m 7,464 ft / 2,275 m 261.44° 275.76° Asphalt 397 ft / 121 m 0 ft / 0 m

Popular Alternatives